Time;durP1;ratioP1;P1;durP2;ratioP2;P2;SDS_P1;SDS_P2;PMS_P1;PMS_P2;Temp;Humidity;BMP_temperature;BMP_pressure;BME280_temperature;BME280_humidity;BME280_pressure;Samples;Min_cycle;Max_cycle;Signal;HPM_P1;HPM_P2
2020/12/17 00:00:26;;;;;;;47.43;25.87;;;;;;;7.56;100.00;100971.63;4995876;28;20666;-71
2020/12/17 00:02:51;;;;;;;45.07;25.40;;;;;;;7.40;100.00;100974.34;5012659;28;20184;-72
2020/12/17 00:05:19;;;;;;;48.67;25.13;;;;;;;7.31;100.00;100967.72;4979190;28;20284;-73
2020/12/17 00:07:45;;;;;;;43.17;23.60;;;;;;;7.29;100.00;100953.63;5012586;28;20292;-72
2020/12/17 00:10:14;;;;;;;40.87;24.00;;;;;;;7.38;100.00;100958.38;4995205;28;20569;-72
2020/12/17 00:12:44;;;;;;;43.33;23.47;;;;;;;7.49;100.00;100960.19;4980031;28;20173;-72
2020/12/17 00:15:10;;;;;;;44.33;24.80;;;;;;;7.46;100.00;100955.28;4990883;28;20239;-72
2020/12/17 00:17:43;;;;;;;46.40;24.13;;;;;;;7.39;100.00;100953.78;4996060;28;20180;-71
2020/12/17 00:20:11;;;;;;;48.47;24.87;;;;;;;7.31;100.00;100955.00;5011850;28;20228;-71
2020/12/17 00:22:39;;;;;;;46.50;25.00;;;;;;;7.32;100.00;100953.94;4980000;28;20173;-71
2020/12/17 00:25:08;;;;;;;47.10;24.13;;;;;;;7.29;100.00;100954.44;5011320;28;20283;-71
2020/12/17 00:27:37;;;;;;;43.70;24.53;;;;;;;7.25;100.00;100952.44;4996315;28;20208;-71
2020/12/17 00:30:06;;;;;;;47.97;25.70;;;;;;;7.25;100.00;100948.94;4996257;28;20270;-74
2020/12/17 00:32:34;;;;;;;42.40;24.13;;;;;;;7.15;100.00;100943.38;5000273;28;20238;-71
2020/12/17 00:35:02;;;;;;;45.03;24.67;;;;;;;7.22;100.00;100930.53;4998731;28;20673;-71
2020/12/17 00:37:29;;;;;;;47.97;25.13;;;;;;;7.23;100.00;100937.56;4999238;28;20594;-73
2020/12/17 00:39:55;;;;;;;43.10;24.03;;;;;;;7.21;100.00;100940.50;5015590;28;20208;-71
2020/12/17 00:42:23;;;;;;;47.00;24.40;;;;;;;7.18;100.00;100935.59;5014424;28;20243;-70
2020/12/17 00:44:49;;;;;;;45.33;24.27;;;;;;;7.32;100.00;100928.81;5008323;28;20209;-71
2020/12/17 00:47:15;;;;;;;48.20;25.63;;;;;;;7.24;100.00;100931.91;5004883;28;20678;-72
2020/12/17 00:49:41;;;;;;;45.13;24.57;;;;;;;7.19;100.00;100933.72;5015819;28;20196;-71
2020/12/17 00:52:07;;;;;;;45.90;23.87;;;;;;;7.25;100.00;100935.44;5031778;28;20251;-71
2020/12/17 00:54:33;;;;;;;45.37;25.03;;;;;;;7.24;100.00;100937.31;5016620;28;20184;-73
2020/12/17 00:56:58;;;;;;;46.57;24.37;;;;;;;7.27;100.00;100936.00;5032309;28;20216;-73
2020/12/17 00:59:24;;;;;;;42.50;24.10;;;;;;;7.10;100.00;100937.88;5033354;28;20188;-72
2020/12/17 01:01:50;;;;;;;42.13;24.03;;;;;;;7.19;100.00;100933.72;5031272;28;20927;-71
2020/12/17 01:04:16;;;;;;;45.43;23.33;;;;;;;7.23;100.00;100937.56;5031484;28;20188;-71
2020/12/17 01:06:42;;;;;;;40.30;22.87;;;;;;;7.31;100.00;100932.59;5013473;28;20234;-71
2020/12/17 01:09:08;;;;;;;44.07;23.90;;;;;;;7.28;100.00;100934.97;5014733;28;20188;-71
2020/12/17 01:11:37;;;;;;;42.40;23.17;;;;;;;7.19;100.00;100936.41;5014487;28;20631;-71
2020/12/17 01:14:03;;;;;;;40.87;23.53;;;;;;;7.31;100.00;100925.28;5001009;28;20195;-72
2020/12/17 01:16:31;;;;;;;39.73;23.47;;;;;;;7.35;100.00;100921.03;5005509;28;20266;-73
2020/12/17 01:18:57;;;;;;;42.20;24.70;;;;;;;7.19;100.00;100921.03;4998385;28;20182;-72
2020/12/17 01:21:22;;;;;;;41.33;24.00;;;;;;;7.22;100.00;100928.66;5013779;28;20822;-71
2020/12/17 01:23:48;;;;;;;43.90;24.00;;;;;;;7.17;100.00;100928.56;4998128;28;20192;-72
2020/12/17 01:26:14;;;;;;;44.07;24.03;;;;;;;7.10;100.00;100933.28;5013024;28;20217;-71
2020/12/17 01:28:43;;;;;;;43.53;24.27;;;;;;;7.05;100.00;100930.50;5030827;28;20208;-71
2020/12/17 01:31:11;;;;;;;42.33;23.73;;;;;;;7.05;100.00;100930.50;4998287;28;20224;-72
2020/12/17 01:33:40;;;;;;;41.20;23.83;;;;;;;7.15;100.00;100930.69;4999044;28;20199;-71
2020/12/17 01:36:07;;;;;;;43.80;24.63;;;;;;;7.10;100.00;100933.28;4997234;28;20718;-73
2020/12/17 01:38:37;;;;;;;44.17;24.40;;;;;;;7.06;100.00;100940.22;5015240;28;20177;-72
2020/12/17 01:41:05;;;;;;;42.73;24.63;;;;;;;7.05;100.00;100937.75;4998468;28;20224;-71
2020/12/17 01:43:38;;;;;;;43.43;24.93;;;;;;;7.06;100.00;100937.53;4995857;28;20176;-71
2020/12/17 01:46:03;;;;;;;43.33;24.67;;;;;;;7.05;100.00;100938.59;5011605;28;20677;-72
2020/12/17 01:48:29;;;;;;;45.57;25.00;;;;;;;7.17;100.00;100933.94;4994350;28;20205;-71
2020/12/17 01:50:54;;;;;;;46.50;24.83;;;;;;;7.05;100.00;100935.91;4977930;28;20784;-74
2020/12/17 01:53:20;;;;;;;41.67;23.37;;;;;;;7.08;100.00;100934.59;4994503;28;20189;-71
2020/12/17 01:55:48;;;;;;;47.37;24.73;;;;;;;7.17;100.00;100933.13;4976236;28;20223;-71
2020/12/17 01:58:13;;;;;;;44.20;24.43;;;;;;;7.25;100.00;100940.84;4978679;28;20642;-71
2020/12/17 02:00:39;;;;;;;41.67;23.97;;;;;;;7.44;100.00;100930.38;4993793;28;20240;-72
2020/12/17 02:03:09;;;;;;;40.77;23.33;;;;;;;7.19;100.00;100931.81;4978874;28;20200;-71
2020/12/17 02:05:37;;;;;;;45.90;24.73;;;;;;;7.33;100.00;100931.28;4993756;28;20270;-72
2020/12/17 02:08:04;;;;;;;41.40;23.80;;;;;;;7.46;100.00;100928.25;4979215;28;20221;-71
2020/12/17 02:10:29;;;;;;;41.37;23.33;;;;;;;7.57;100.00;100937.34;4978955;28;20228;-71
2020/12/17 02:12:55;;;;;;;46.13;24.60;;;;;;;7.48;100.00;100931.53;5011644;28;20847;-71
2020/12/17 02:15:21;;;;;;;37.77;23.37;;;;;;;7.43;100.00;100934.13;4982692;28;20517;-72
2020/12/17 02:17:49;;;;;;;37.50;23.00;;;;;;;7.49;100.00;100926.94;5000930;28;20190;-72
2020/12/17 02:20:15;;;;;;;39.57;23.33;;;;;;;7.65;100.00;100932.34;4979550;28;20642;-71
2020/12/17 02:22:40;;;;;;;37.40;23.03;;;;;;;7.56;100.00;100933.00;4996151;28;20185;-72
2020/12/17 02:25:11;;;;;;;34.90;21.40;;;;;;;7.61;100.00;100925.78;4977173;28;20185;-71
2020/12/17 02:27:39;;;;;;;37.10;22.73;;;;;;;7.68;100.00;100926.44;4967355;28;20197;-72
2020/12/17 02:30:08;;;;;;;35.50;22.00;;;;;;;7.67;100.00;100936.44;4993809;28;20255;-71
2020/12/17 02:32:37;;;;;;;34.43;21.43;;;;;;;7.66;100.00;100930.47;4993885;28;20638;-71
2020/12/17 02:35:04;;;;;;;36.53;22.73;;;;;;;7.73;100.00;100929.22;4992391;28;20196;-72
2020/12/17 02:37:29;;;;;;;33.87;21.93;;;;;;;7.66;100.00;100925.88;4993684;28;20192;-72
2020/12/17 02:39:55;;;;;;;33.53;22.23;;;;;;;7.72;100.00;100928.41;5009899;28;20197;-71
2020/12/17 02:42:23;;;;;;;34.03;21.93;;;;;;;7.81;100.00;100924.22;4992571;28;20295;-73
2020/12/17 02:44:51;;;;;;;31.13;20.87;;;;;;;7.75;100.00;100921.69;5002391;28;20766;-71
2020/12/17 02:47:17;;;;;;;33.20;21.43;;;;;;;7.70;100.00;100918.91;4996527;28;20220;-71
2020/12/17 02:49:46;;;;;;;33.17;20.60;;;;;;;7.87;100.00;100925.91;5030747;28;20176;-73
2020/12/17 02:52:11;;;;;;;30.23;20.70;;;;;;;7.80;100.00;100921.75;4979952;28;20318;-71
2020/12/17 02:54:37;;;;;;;31.00;20.40;;;;;;;7.80;100.00;100927.16;5012892;28;20188;-71
2020/12/17 02:57:03;;;;;;;30.37;19.93;;;;;;;7.87;100.00;100917.00;5012143;28;20228;-72
2020/12/17 02:59:34;;;;;;;32.83;20.47;;;;;;;7.91;100.00;100915.41;4996205;28;20176;-71
2020/12/17 03:01:59;;;;;;;28.33;19.97;;;;;;;7.73;100.00;100913.81;5012298;28;20266;-71
2020/12/17 03:04:25;;;;;;;30.87;20.50;;;;;;;7.75;100.00;100917.09;5012492;28;20567;-71
2020/12/17 03:06:50;;;;;;;27.93;19.23;;;;;;;7.97;100.00;100919.88;5011824;28;20235;-73
2020/12/17 03:09:16;;;;;;;26.37;19.00;;;;;;;7.88;100.00;100910.53;4980215;28;20816;-71
2020/12/17 03:11:42;;;;;;;26.23;19.13;;;;;;;7.71;100.00;100915.97;5014288;28;20278;-71
2020/12/17 03:14:12;;;;;;;29.70;19.33;;;;;;;7.85;100.00;100916.44;5014766;28;20181;-72
2020/12/17 03:16:38;;;;;;;26.40;18.63;;;;;;;7.87;100.00;100917.00;4978833;28;20276;-72
2020/12/17 03:19:04;;;;;;;23.60;17.73;;;;;;;7.78;100.00;100922.03;4996031;28;20564;-71
2020/12/17 03:21:29;;;;;;;25.80;18.43;;;;;;;7.92;100.00;100906.25;4995427;28;20291;-73
2020/12/17 03:23:55;;;;;;;26.77;18.40;;;;;;;7.88;100.00;100905.13;4996532;28;20279;-71
2020/12/17 03:26:23;;;;;;;26.20;18.73;;;;;;;7.84;100.00;100914.81;4994826;28;20270;-71
2020/12/17 03:28:49;;;;;;;24.43;18.03;;;;;;;7.83;100.00;100921.25;5010546;28;20201;-76
2020/12/17 03:31:15;;;;;;;27.13;18.80;;;;;;;8.03;100.00;100916.16;4976384;28;20228;-76
2020/12/17 03:33:44;;;;;;;23.37;17.37;;;;;;;7.84;100.00;100912.09;4977700;28;20205;-77
2020/12/17 03:36:12;;;;;;;26.60;18.97;;;;;;;7.74;100.00;100915.44;4992122;28;20217;-76
2020/12/17 03:38:40;;;;;;;25.70;17.63;;;;;;;7.69;100.00;100909.16;4993485;28;20258;-76
2020/12/17 03:41:08;;;;;;;24.60;17.67;;;;;;;7.84;100.00;100917.50;4992864;28;20279;-76
2020/12/17 03:43:34;;;;;;;25.20;17.47;;;;;;;7.79;100.00;100912.81;5010921;28;20639;-76
2020/12/17 03:46:01;;;;;;;24.60;17.90;;;;;;;7.75;100.00;100902.78;5020329;28;20251;-76
2020/12/17 03:48:30;;;;;;;24.63;17.50;;;;;;;7.85;100.00;100900.19;4995106;28;20209;-76
2020/12/17 03:50:57;;;;;;;24.20;17.30;;;;;;;7.85;100.00;100905.59;4992389;28;20217;-76
2020/12/17 03:53:23;;;;;;;24.37;17.30;;;;;;;7.79;100.00;100902.00;4976259;28;20255;-76
2020/12/17 03:55:49;;;;;;;27.67;18.57;;;;;;;7.89;100.00;100896.75;5024278;28;20213;-76
2020/12/17 03:58:17;;;;;;;26.23;18.50;;;;;;;7.88;100.00;100894.31;4992941;28;20239;-76
2020/12/17 04:00:42;;;;;;;24.80;17.83;;;;;;;7.84;100.00;100893.19;4975850;28;20225;-76
2020/12/17 04:03:08;;;;;;;25.50;17.60;;;;;;;7.87;100.00;100895.38;5010212;28;20185;-76
2020/12/17 04:05:34;;;;;;;24.83;18.00;;;;;;;7.89;100.00;100906.75;5007712;28;20221;-76
2020/12/17 04:08:00;;;;;;;27.23;17.83;;;;;;;7.87;100.00;100898.88;4992725;28;20554;-76
2020/12/17 04:10:25;;;;;;;25.10;17.87;;;;;;;7.93;100.00;100894.34;5009294;28;20212;-76
2020/12/17 04:12:53;;;;;;;26.17;17.60;;;;;;;7.89;100.00;100885.91;4992100;28;20682;-76
2020/12/17 04:15:19;;;;;;;24.87;17.70;;;;;;;8.08;100.00;100885.41;5002171;28;20204;-76
2020/12/17 04:17:45;;;;;;;26.20;18.03;;;;;;;7.94;100.00;100893.31;5022939;28;20181;-76
2020/12/17 04:20:15;;;;;;;23.60;17.07;;;;;;;7.87;100.00;100881.84;5013756;28;20243;-76
2020/12/17 04:22:40;;;;;;;24.27;16.83;;;;;;;7.97;100.00;100882.00;5015647;28;20192;-76
2020/12/17 04:25:08;;;;;;;24.57;16.40;;;;;;;7.74;100.00;100882.19;5015158;28;20226;-76
2020/12/17 04:27:36;;;;;;;21.47;16.20;;;;;;;7.80;100.00;100882.03;4998922;28;20246;-77
2020/12/17 04:30:02;;;;;;;24.10;17.20;;;;;;;7.80;100.00;100875.78;5030296;28;20204;-77
2020/12/17 04:32:31;;;;;;;24.07;17.30;;;;;;;7.83;100.00;100867.19;5009913;28;20221;-76
2020/12/17 04:34:56;;;;;;;24.53;17.13;;;;;;;7.75;100.00;100873.03;4995842;28;20169;-76
2020/12/17 04:37:22;;;;;;;25.93;17.23;;;;;;;7.65;100.00;100861.25;5014578;28;20220;-76
2020/12/17 04:39:48;;;;;;;24.37;16.90;;;;;;;7.67;100.00;100871.56;4996031;28;20192;-76
2020/12/17 04:42:16;;;;;;;26.17;17.77;;;;;;;7.77;100.00;100870.91;5011869;28;20247;-77
2020/12/17 04:44:42;;;;;;;23.53;16.87;;;;;;;7.62;100.00;100862.56;5007781;28;20184;-76
2020/12/17 04:47:12;;;;;;;24.43;16.77;;;;;;;7.74;100.00;100871.38;4995537;28;20227;-75
2020/12/17 04:49:45;;;;;;;22.73;17.07;;;;;;;7.71;100.00;100872.72;5010802;28;20213;-76
2020/12/17 04:52:14;;;;;;;23.57;17.77;;;;;;;7.82;100.00;100865.53;4986953;28;20732;-76
2020/12/17 04:54:40;;;;;;;23.23;16.40;;;;;;;7.77;100.00;100860.09;4995209;28;20283;-75
2020/12/17 04:57:08;;;;;;;23.43;16.73;;;;;;;7.65;100.00;100872.06;5025320;28;20216;-75
2020/12/17 04:59:47;;;;;;;21.63;16.10;;;;;;;7.73;100.00;100869.75;5024493;28;20180;-75
2020/12/17 05:02:14;;;;;;;24.03;16.93;;;;;;;7.74;100.00;100860.56;4997918;28;20715;-75
2020/12/17 05:04:43;;;;;;;21.70;15.70;;;;;;;7.97;100.00;100871.19;4982138;28;20234;-75
2020/12/17 05:07:11;;;;;;;24.67;16.83;;;;;;;7.78;100.00;100870.66;4997895;28;20232;-75
2020/12/17 05:09:41;;;;;;;25.23;16.80;;;;;;;7.88;100.00;100851.03;5014863;28;20581;-75
2020/12/17 05:12:06;;;;;;;23.43;16.80;;;;;;;7.84;100.00;100858.03;5014389;28;20667;-75
2020/12/17 05:14:32;;;;;;;20.73;15.60;;;;;;;7.90;100.00;100854.31;5014262;28;20283;-74
2020/12/17 05:16:58;;;;;;;21.93;16.17;;;;;;;7.85;100.00;100859.66;4997431;28;20714;-74
2020/12/17 05:19:24;;;;;;;19.93;15.30;;;;;;;7.93;100.00;100864.63;5031163;28;20207;-75
2020/12/17 05:21:53;;;;;;;22.70;15.70;;;;;;;7.90;100.00;100878.66;5030062;28;20234;-75
2020/12/17 05:24:22;;;;;;;23.33;17.10;;;;;;;8.01;100.00;100877.72;5014620;28;20184;-75
2020/12/17 05:26:52;;;;;;;22.67;16.70;;;;;;;7.96;100.00;100870.34;4998060;28;20281;-75
2020/12/17 05:29:19;;;;;;;22.23;16.53;;;;;;;7.87;100.00;100884.53;5014741;28;20176;-74
2020/12/17 05:31:45;;;;;;;21.60;15.97;;;;;;;7.94;100.00;100882.50;4993163;28;20771;-75
2020/12/17 05:34:11;;;;;;;21.07;15.10;;;;;;;7.96;100.00;100872.25;4991690;28;20188;-74
2020/12/17 05:36:39;;;;;;;20.07;15.37;;;;;;;7.91;100.00;100873.00;5000932;28;20644;-75
2020/12/17 05:39:13;;;;;;;19.73;15.10;;;;;;;7.89;100.00;100871.59;4978969;28;20192;-75
2020/12/17 05:41:42;;;;;;;22.10;14.60;;;;;;;8.05;100.00;100875.06;5009489;28;20239;-75
2020/12/17 05:44:11;;;;;;;19.80;14.77;;;;;;;8.03;100.00;100875.59;4979554;28;20296;-76
2020/12/17 05:46:38;;;;;;;18.60;14.17;;;;;;;7.93;100.00;100880.84;5004433;28;20216;-76
2020/12/17 05:49:18;;;;;;;19.87;14.63;;;;;;;8.10;100.00;100877.06;5029948;28;20230;-75
2020/12/17 05:51:47;;;;;;;20.60;14.63;;;;;;;8.05;100.00;100880.47;4998335;28;20224;-75
2020/12/17 05:54:25;;;;;;;18.67;14.50;;;;;;;8.03;100.00;100881.00;5028525;28;20195;-76
2020/12/17 05:57:04;;;;;;;21.27;15.00;;;;;;;8.08;100.00;100874.56;5012772;28;20223;-75
2020/12/17 05:59:32;;;;;;;23.20;15.17;;;;;;;8.02;100.00;100873.94;4997236;28;20720;-77
2020/12/17 06:02:20;;;;;;;18.93;14.83;;;;;;;8.05;100.00;100871.56;5010274;28;20282;-75
2020/12/17 06:05:06;;;;;;;22.27;16.03;;;;;;;8.12;100.00;100874.94;4984984;28;20203;-76
2020/12/17 06:07:35;;;;;;;28.20;21.90;;;;;;;8.03;100.00;100863.69;4977807;28;20243;-75
2020/12/17 06:10:06;;;;;;;21.87;15.43;;;;;;;8.10;100.00;100861.66;4994397;28;20259;-75
2020/12/17 06:12:35;;;;;;;18.23;13.70;;;;;;;8.17;100.00;100861.47;4975461;28;20221;-74
2020/12/17 06:15:05;;;;;;;20.07;14.63;;;;;;;8.16;100.00;100855.22;4953777;28;20638;-76
2020/12/17 06:17:39;;;;;;;18.97;14.27;;;;;;;8.09;100.00;100851.91;5029802;28;20392;-75
2020/12/17 06:20:05;;;;;;;19.30;14.63;;;;;;;8.17;100.00;100843.34;5012655;28;20246;-74
2020/12/17 06:22:33;;;;;;;19.57;13.57;;;;;;;8.20;100.00;100833.91;4997369;28;20220;-75
2020/12/17 06:24:59;;;;;;;17.90;13.73;;;;;;;8.05;100.00;100837.19;4997461;28;20560;-75
2020/12/17 06:27:33;;;;;;;20.57;13.93;;;;;;;8.06;100.00;100840.75;4995417;28;20237;-74
2020/12/17 06:30:05;;;;;;;17.23;13.50;;;;;;;8.08;100.00;100844.81;5001496;28;20200;-74
2020/12/17 06:32:35;;;;;;;19.77;13.17;;;;;;;8.02;100.00;100844.19;5001847;28;20291;-74
2020/12/17 06:35:06;;;;;;;17.63;14.20;;;;;;;8.11;100.00;100849.78;4994419;28;20339;-74
2020/12/17 06:37:31;;;;;;;18.63;13.37;;;;;;;8.04;100.00;100840.19;5031684;28;20220;-74
2020/12/17 06:39:57;;;;;;;17.60;13.30;;;;;;;8.08;100.00;100842.13;5013697;28;20204;-74
2020/12/17 06:42:38;;;;;;;17.33;13.47;;;;;;;8.18;100.00;100834.16;4996089;28;20710;-74
2020/12/17 06:45:22;;;;;;;20.43;12.90;;;;;;;8.23;100.00;100823.41;5006128;28;20191;-75
2020/12/17 06:47:48;;;;;;;19.77;13.87;;;;;;;8.06;100.00;100827.22;4984829;28;20974;-74
2020/12/17 06:50:28;;;;;;;18.33;13.27;;;;;;;8.16;100.00;100836.28;4992616;28;20211;-75
2020/12/17 06:53:14;;;;;;;19.40;13.70;;;;;;;8.09;100.00;100843.81;4993875;28;20234;-73
2020/12/17 07:03:06;;;;;;;16.93;12.67;;;;;;;8.14;100.00;100849.25;5010671;28;20220;-76
2020/12/17 07:05:32;;;;;;;17.13;12.70;;;;;;;8.14;100.00;100845.75;5008456;28;20221;-75
2020/12/17 07:07:59;;;;;;;16.23;12.63;;;;;;;8.20;100.00;100840.13;5010934;28;20205;-75
2020/12/17 07:10:28;;;;;;;15.30;12.53;;;;;;;8.26;100.00;100833.72;5008967;28;20205;-75
2020/12/17 07:12:56;;;;;;;15.43;12.67;;;;;;;8.38;100.00;100858.75;5009442;28;20185;-75
2020/12/17 07:15:37;;;;;;;17.77;12.37;;;;;;;8.37;100.00;100873.38;4972827;28;21431;-74
2020/12/17 07:18:23;;;;;;;15.40;12.07;;;;;;;8.15;100.00;100850.91;4996158;28;20223;-75
2020/12/17 07:21:02;;;;;;;16.27;12.37;;;;;;;8.26;100.00;100863.50;4960236;28;20380;-75
2020/12/17 07:23:31;;;;;;;14.53;12.27;;;;;;;8.36;100.00;100881.72;4992955;28;20197;-75
2020/12/17 07:26:03;;;;;;;15.43;12.13;;;;;;;8.43;100.00;100872.34;4992039;28;20228;-75
2020/12/17 07:28:29;;;;;;;15.43;11.53;;;;;;;8.25;100.00;100878.06;5009446;28;20208;-75
2020/12/17 07:30:55;;;;;;;15.70;12.13;;;;;;;8.32;100.00;100876.00;5008548;28;20571;-75
2020/12/17 07:33:39;;;;;;;16.63;12.23;;;;;;;8.44;100.00;100873.97;4960940;28;20216;-75
2020/12/17 07:36:04;;;;;;;15.93;12.20;;;;;;;8.40;100.00;100880.16;5011112;28;20275;-75
2020/12/17 07:38:30;;;;;;;15.17;12.00;;;;;;;8.35;100.00;100889.03;5011820;28;20173;-75
2020/12/17 07:40:56;;;;;;;16.20;12.40;;;;;;;8.31;100.00;100889.78;4993906;28;20371;-75
2020/12/17 07:43:24;;;;;;;14.47;11.67;;;;;;;8.41;100.00;100888.03;4994322;28;20231;-75
2020/12/17 07:46:01;;;;;;;16.13;12.23;;;;;;;8.39;100.00;100883.91;5019685;28;20331;-75
2020/12/17 07:48:51;;;;;;;12.80;10.93;;;;;;;8.51;100.00;100888.13;4977917;28;20216;-73
2020/12/17 07:51:16;;;;;;;15.37;11.73;;;;;;;8.43;100.00;100892.09;5009937;28;20224;-74
2020/12/17 07:53:49;;;;;;;14.67;11.50;;;;;;;8.44;100.00;100892.91;5010026;28;20215;-74
2020/12/17 07:56:17;;;;;;;16.53;12.53;;;;;;;8.46;100.00;100909.72;4980937;28;20232;-75
2020/12/17 07:58:43;;;;;;;14.37;11.50;;;;;;;8.53;100.00;100894.94;5014130;28;20687;-75
2020/12/17 08:01:13;;;;;;;16.43;11.87;;;;;;;8.42;100.00;100892.34;5012885;28;20259;-74
2020/12/17 08:03:46;;;;;;;15.47;11.57;;;;;;;8.36;100.00;100897.97;4982696;28;20734;-74
2020/12/17 08:06:13;;;;;;;17.43;11.83;;;;;;;8.56;100.00;100899.84;4981458;28;20788;-74
2020/12/17 08:08:39;;;;;;;16.00;11.57;;;;;;;8.53;100.00;100883.28;4998361;28;20531;-74
2020/12/17 08:11:05;;;;;;;13.77;11.20;;;;;;;8.73;100.00;100883.50;4997484;28;20228;-75
2020/12/17 08:13:31;;;;;;;15.90;12.10;;;;;;;8.76;100.00;100891.13;5014337;28;20177;-75
2020/12/17 08:16:00;;;;;;;13.97;11.43;;;;;;;8.52;100.00;100893.28;5024633;28;20263;-75
2020/12/17 08:18:27;;;;;;;18.97;11.73;;;;;;;8.57;100.00;100889.81;5030415;28;20177;-74
2020/12/17 08:21:19;;;;;;;14.70;11.30;;;;;;;8.62;100.00;100892.59;5013735;28;20702;-75
2020/12/17 08:23:48;;;;;;;13.37;11.10;;;;;;;8.62;100.00;100881.75;5013771;28;20205;-75
2020/12/17 08:26:22;;;;;;;13.93;11.73;;;;;;;8.81;100.00;100885.75;4996709;28;20737;-75
2020/12/17 08:28:47;;;;;;;13.97;10.93;;;;;;;8.71;100.00;100874.81;5013831;28;20213;-75
2020/12/17 08:31:22;;;;;;;13.07;10.83;;;;;;;8.81;100.00;100861.38;4996737;28;20257;-75
2020/12/17 08:33:57;;;;;;;12.73;10.87;;;;;;;8.84;100.00;100876.06;4999963;28;20550;-75
2020/12/17 08:36:27;;;;;;;13.37;10.67;;;;;;;9.02;100.00;100883.81;5026374;28;20233;-75
2020/12/17 08:38:59;;;;;;;12.47;10.30;;;;;;;9.00;100.00;100875.13;4980291;28;20192;-75
2020/12/17 08:41:33;;;;;;;14.47;10.47;;;;;;;8.98;100.00;100874.56;5011367;28;20225;-75
2020/12/17 08:44:01;;;;;;;12.87;10.70;;;;;;;8.92;100.00;100878.31;4999189;28;20596;-74
2020/12/17 08:46:37;;;;;;;14.03;10.33;;;;;;;8.98;100.00;100877.28;4987671;28;20645;-76
2020/12/17 08:49:08;;;;;;;13.97;10.50;;;;;;;8.95;100.00;100877.78;4995964;28;20677;-75
2020/12/17 08:51:46;;;;;;;12.47;10.73;;;;;;;9.03;100.00;100895.47;4979496;28;20235;-75
2020/12/17 08:54:46;;;;;;;12.13;10.60;;;;;;;9.08;100.00;100866.53;4996350;28;20208;-75
2020/12/17 08:57:16;;;;;;;12.33;10.40;;;;;;;9.07;100.00;100886.56;4988007;28;20225;-74
2020/12/17 08:59:41;;;;;;;11.33;9.80;;;;;;;8.97;100.00;100881.06;4996223;28;20573;-75
2020/12/17 09:02:07;;;;;;;13.90;10.73;;;;;;;9.10;100.00;100880.66;4995110;28;20216;-74
2020/12/17 09:04:35;;;;;;;12.97;10.63;;;;;;;9.26;100.00;100874.28;4995605;28;20664;-75
2020/12/17 09:07:06;;;;;;;13.47;10.73;;;;;;;9.08;100.00;100871.94;4995060;28;20267;-74
2020/12/17 09:09:33;;;;;;;12.43;10.17;;;;;;;9.14;100.00;100881.78;4995858;28;20212;-75
2020/12/17 09:11:59;;;;;;;13.33;10.27;;;;;;;9.08;100.00;100881.97;4995149;28;20225;-75
2020/12/17 09:14:35;;;;;;;12.20;10.03;;;;;;;9.22;100.00;100868.56;5019087;28;20296;-75
2020/12/17 09:17:19;;;;;;;13.43;10.87;;;;;;;9.22;100.00;100879.38;5023185;28;20212;-75
2020/12/17 09:19:47;;;;;;;15.17;10.87;;;;;;;9.21;100.00;100887.78;5017093;28;20767;-74
2020/12/17 09:22:14;;;;;;;13.47;11.13;;;;;;;9.25;100.00;100886.22;5002564;28;20239;-75
2020/12/17 09:24:40;;;;;;;13.83;11.10;;;;;;;9.29;100.00;100884.63;5022536;28;20200;-75
2020/12/17 09:27:26;;;;;;;13.43;11.10;;;;;;;9.43;100.00;100902.91;5020990;28;20231;-74
2020/12/17 09:30:02;;;;;;;12.20;10.37;;;;;;;9.36;100.00;100906.91;5036417;28;20654;-74
2020/12/17 09:32:28;;;;;;;13.10;10.50;;;;;;;9.28;100.00;100910.06;5014452;28;20232;-74
2020/12/17 09:35:11;;;;;;;13.90;10.87;;;;;;;9.25;100.00;100906.00;5031096;28;20179;-74
2020/12/17 09:37:40;;;;;;;13.23;10.07;;;;;;;9.37;100.00;100909.34;4999313;28;20231;-74
2020/12/17 09:40:09;;;;;;;12.50;10.17;;;;;;;9.40;100.00;100918.88;5013684;28;20227;-75
2020/12/17 09:42:40;;;;;;;13.33;10.83;;;;;;;9.34;100.00;100928.00;4999076;28;20226;-74
2020/12/17 09:45:21;;;;;;;12.80;10.30;;;;;;;9.33;100.00;100919.06;4996893;28;20207;-75
2020/12/17 09:47:49;;;;;;;12.40;10.77;;;;;;;9.30;100.00;100930.44;5025674;28;20211;-73
2020/12/17 09:50:18;;;;;;;13.53;10.50;;;;;;;9.30;100.00;100918.75;5014693;28;20258;-74
2020/12/17 09:52:44;;;;;;;12.30;10.37;;;;;;;9.33;100.00;100929.91;5030780;28;20180;-74
2020/12/17 09:55:12;;;;;;;12.07;10.67;;;;;;;9.45;100.00;100932.44;5013378;28;20185;-74
2020/12/17 09:57:41;;;;;;;11.77;9.87;;;;;;;9.35;100.00;100933.16;5014602;28;20207;-74
2020/12/17 10:00:08;;;;;;;13.13;10.70;;;;;;;9.37;100.00;100941.06;5014049;28;20690;-74
2020/12/17 10:02:43;;;;;;;12.13;10.40;;;;;;;9.24;100.00;100938.75;5015061;28;20806;-75
2020/12/17 10:05:11;;;;;;;13.17;10.67;;;;;;;9.29;100.00;100947.75;5013079;28;20254;-75
2020/12/17 10:07:37;;;;;;;13.60;10.70;;;;;;;9.32;100.00;100938.28;5014287;28;20208;-75
2020/12/17 10:10:03;;;;;;;15.47;11.07;;;;;;;9.30;100.00;100941.28;5014204;28;20826;-75
2020/12/17 10:12:31;;;;;;;13.87;11.77;;;;;;;9.31;100.00;100940.19;4997213;28;20266;-75
2020/12/17 10:15:01;;;;;;;15.30;12.00;;;;;;;9.36;100.00;100944.84;5005640;28;20255;-75
2020/12/17 10:17:27;;;;;;;13.10;11.70;;;;;;;9.37;100.00;100941.06;5022094;28;20214;-74
2020/12/17 10:19:53;;;;;;;15.47;11.83;;;;;;;9.34;100.00;100938.84;5030154;28;20176;-75
2020/12/17 10:22:18;;;;;;;13.37;11.33;;;;;;;9.39;100.00;100934.28;5013225;28;20274;-75
2020/12/17 10:24:46;;;;;;;14.90;11.90;;;;;;;9.41;100.00;100944.88;5029875;28;20180;-76
2020/12/17 10:27:12;;;;;;;14.17;11.70;;;;;;;9.37;100.00;100938.34;5012869;28;20216;-76
2020/12/17 10:29:38;;;;;;;14.87;12.03;;;;;;;9.30;100.00;100948.56;5030313;28;20642;-76
2020/12/17 10:32:06;;;;;;;14.30;12.03;;;;;;;9.36;100.00;100944.84;5029212;28;20247;-76
2020/12/17 10:34:34;;;;;;;15.03;12.00;;;;;;;9.29;100.00;100949.66;5027721;28;20178;-75
2020/12/17 10:36:59;;;;;;;13.73;12.23;;;;;;;9.34;100.00;100945.09;4993125;28;20217;-75
2020/12/17 10:39:25;;;;;;;16.27;12.50;;;;;;;9.32;100.00;100949.97;5011436;28;20685;-75
2020/12/17 10:41:51;;;;;;;21.77;15.57;;;;;;;9.33;100.00;100953.50;4976864;28;20235;-75
2020/12/17 10:44:19;;;;;;;17.40;13.97;;;;;;;9.37;100.00;100952.69;5012114;28;20192;-75
2020/12/17 10:46:49;;;;;;;16.67;13.80;;;;;;;9.32;100.00;100949.13;5000941;28;20278;-76
2020/12/17 10:49:20;;;;;;;18.20;12.73;;;;;;;9.40;100.00;100948.69;4980623;28;20236;-75
2020/12/17 10:51:48;;;;;;;14.23;12.60;;;;;;;9.44;100.00;100955.22;4961655;28;20725;-75
2020/12/17 10:54:15;;;;;;;17.80;13.80;;;;;;;9.34;100.00;100952.41;4994632;28;20181;-76
2020/12/17 10:56:44;;;;;;;16.43;13.87;;;;;;;9.44;100.00;100963.34;5009418;28;20283;-75
2020/12/17 10:59:10;;;;;;;16.17;13.87;;;;;;;9.48;100.00;100954.44;5010050;28;20189;-76
2020/12/17 11:01:36;;;;;;;17.30;13.60;;;;;;;9.56;100.00;100947.72;5009384;28;20776;-76
2020/12/17 11:04:01;;;;;;;16.30;14.03;;;;;;;9.57;100.00;100952.88;4961629;28;20193;-76
2020/12/17 11:06:27;;;;;;;17.03;13.10;;;;;;;9.48;100.00;100953.63;4977409;28;20979;-76
2020/12/17 11:08:57;;;;;;;15.57;13.07;;;;;;;9.53;100.00;100954.50;5011090;28;20204;-75
2020/12/17 11:11:30;;;;;;;14.47;12.40;;;;;;;9.43;100.00;100959.00;4994144;28;20232;-75
2020/12/17 11:14:01;;;;;;;14.40;12.03;;;;;;;9.44;100.00;100963.34;4996517;28;20281;-76
2020/12/17 11:16:29;;;;;;;16.83;12.77;;;;;;;9.46;100.00;100958.50;5005131;28;20219;-76
2020/12/17 11:18:59;;;;;;;16.53;12.83;;;;;;;9.54;100.00;100974.28;5029372;28;20510;-77
2020/12/17 11:21:25;;;;;;;17.40;13.17;;;;;;;9.61;100.00;100956.72;5012871;28;20220;-75
2020/12/17 11:23:51;;;;;;;14.50;13.00;;;;;;;9.72;100.00;100961.97;4998170;28;20369;-75